Lemmer, Netherlands
Current Conditions -  °F | °C
As of 8:25 PM on Monday 20 Oct 2014 (Local Time) from EHLW Reporting Station
Overcast Overcast  
Wind Chill: 55°   Ceiling: 7700
Heat Index: 55°   Visibility: 6mi
Dew Point: 52°   Wind: 9mph
Humidity: 88%   Direction: 260°W
Pressure: 29.85"   Gusts: NA
Location:  52.85°N, 5.71°E
Report Text: EHLW 201825Z AUTO 26008KT 9999 FEW058 SCT070 OVC077 13/11 Q1011 BLU
Loading
Personal Weather Stations






























Interactive Weather Map New forecast layout! Learn more

10-Day Weather Forecast

Advertisements
Track Severe Weather on mobile